Time;durP1;ratioP1;P1;durP2;ratioP2;P2;SDS_P1;SDS_P2;PMS_P1;PMS_P2;Temp;Humidity;BMP_temperature;BMP_pressure;BME280_temperature;BME280_humidity;BME280_pressure;Samples;Min_cycle;Max_cycle;Signal;HPM_P1;HPM_P2
2021/01/14 00:00:28;;;;;;;6.70;1.90;;;1.90;86.30;;;;;;5091765;28;20515;-78
2021/01/14 00:02:54;;;;;;;5.93;1.80;;;2.00;86.10;;;;;;5092150;28;20044;-77
2021/01/14 00:05:20;;;;;;;6.73;1.80;;;2.00;86.20;;;;;;5091689;28;20500;-75
2021/01/14 00:07:46;;;;;;;5.90;1.93;;;2.00;86.20;;;;;;5090982;28;20047;-76
2021/01/14 00:10:12;;;;;;;5.97;1.80;;;2.00;86.30;;;;;;5092050;28;20435;-76
2021/01/14 00:12:42;;;;;;;5.87;1.90;;;2.00;86.30;;;;;;5073316;28;20357;-76
2021/01/14 00:15:10;;;;;;;6.70;1.70;;;2.00;86.30;;;;;;5091546;28;20044;-77
2021/01/14 00:17:36;;;;;;;7.27;2.07;;;1.90;86.30;;;;;;5090308;28;20416;-76
2021/01/14 00:20:06;;;;;;;6.27;1.97;;;1.90;86.20;;;;;;5090294;28;20029;-77
2021/01/14 00:22:31;;;;;;;9.98;2.22;;;1.80;86.40;;;;;;5090188;28;20052;-76
2021/01/14 00:24:57;;;;;;;9.70;2.63;;;1.80;86.80;;;;;;5072731;28;20473;-74
2021/01/14 00:27:23;;;;;;;10.40;2.60;;;1.80;87.00;;;;;;5090648;28;20035;-76
2021/01/14 00:29:48;;;;;;;8.33;2.70;;;1.70;87.40;;;;;;5091004;28;20512;-75
2021/01/14 00:32:14;;;;;;;9.73;2.90;;;1.70;87.80;;;;;;5090189;28;20048;-76
2021/01/14 00:34:40;;;;;;;9.53;2.90;;;1.70;88.10;;;;;;5089811;28;20043;-76
2021/01/14 00:39:54;;;;;;;9.97;3.50;;;1.60;88.70;;;;;;5091044;28;20556;-76
2021/01/14 00:42:20;;;;;;;8.57;2.70;;;1.60;89.10;;;;;;5089944;28;20043;-76
2021/01/14 00:44:46;;;;;;;7.03;2.60;;;1.60;89.30;;;;;;5090975;28;20036;-74
2021/01/14 00:47:12;;;;;;;9.33;2.90;;;1.60;90.00;;;;;;5089132;28;20032;-76
2021/01/14 00:49:38;;;;;;;7.20;2.87;;;1.60;89.80;;;;;;5108542;27;20381;-76
2021/01/14 00:52:03;;;;;;;11.37;3.47;;;1.60;90.00;;;;;;5099106;28;20281;-75
2021/01/14 00:54:29;;;;;;;9.97;3.50;;;1.60;90.10;;;;;;5090839;27;20043;-76
2021/01/14 00:56:55;;;;;;;10.10;3.20;;;1.60;90.20;;;;;;5110137;27;20043;-76
2021/01/14 00:59:21;;;;;;;9.23;3.10;;;1.60;90.30;;;;;;5085191;28;20028;-75
2021/01/14 01:01:46;;;;;;;10.23;2.83;;;1.60;90.40;;;;;;5109847;27;20039;-77
2021/01/14 01:04:12;;;;;;;7.17;2.80;;;1.70;90.50;;;;;;5088484;28;20037;-77
2021/01/14 01:06:40;;;;;;;8.67;3.20;;;1.60;90.50;;;;;;5098589;27;20036;-74
2021/01/14 01:09:10;;;;;;;8.57;3.50;;;1.70;90.60;;;;;;5097799;28;20089;-73
2021/01/14 01:11:38;;;;;;;10.18;3.10;;;1.70;90.70;;;;;;5088378;27;20031;-75
2021/01/14 01:14:05;;;;;;;8.47;3.13;;;1.70;90.80;;;;;;5109894;27;20063;-74
2021/01/14 01:16:31;;;;;;;8.80;2.97;;;1.70;90.80;;;;;;5114744;27;20472;-74
2021/01/14 01:18:57;;;;;;;8.23;3.03;;;1.70;90.90;;;;;;5098602;27;20036;-75
2021/01/14 01:21:23;;;;;;;10.97;3.30;;;1.70;90.90;;;;;;5098314;27;20574;-74
2021/01/14 01:23:48;;;;;;;7.20;2.90;;;1.70;91.10;;;;;;5102102;27;20031;-75
2021/01/14 01:26:15;;;;;;;7.40;3.10;;;1.70;91.20;;;;;;5110357;27;20035;-76
2021/01/14 01:28:42;;;;;;;7.93;2.73;;;1.70;91.20;;;;;;5091780;27;20028;-76
2021/01/14 01:31:10;;;;;;;8.27;2.90;;;1.70;91.20;;;;;;5110972;27;20089;-76
2021/01/14 01:33:36;;;;;;;7.37;2.90;;;1.70;91.20;;;;;;5110799;27;20039;-76
2021/01/14 01:36:05;;;;;;;7.47;2.70;;;1.70;91.30;;;;;;5110365;27;20066;-75
2021/01/14 01:38:30;;;;;;;9.43;2.77;;;1.70;91.40;;;;;;5110052;27;20035;-77
2021/01/14 01:40:58;;;;;;;6.27;2.70;;;1.70;91.50;;;;;;5110901;28;20395;-75
2021/01/14 01:43:24;;;;;;;6.27;2.87;;;1.70;91.50;;;;;;5092444;28;20032;-76
2021/01/14 01:45:50;;;;;;;8.47;2.90;;;1.70;91.60;;;;;;5111065;28;20036;-68
2021/01/14 01:48:17;;;;;;;6.90;2.67;;;1.80;91.70;;;;;;5110394;28;20043;-65
2021/01/14 01:50:47;;;;;;;6.57;2.70;;;1.80;91.70;;;;;;5110094;28;20036;-67
2021/01/14 01:53:13;;;;;;;7.17;3.10;;;1.80;91.70;;;;;;5110388;28;20047;-67
2021/01/14 01:55:42;;;;;;;6.33;2.63;;;1.80;92.00;;;;;;5109580;28;20040;-67
2021/01/14 01:58:09;;;;;;;7.57;2.70;;;1.80;91.90;;;;;;5112722;27;20032;-67
2021/01/14 02:00:34;;;;;;;6.33;2.70;;;1.80;91.90;;;;;;5113080;27;20036;-67
2021/01/14 02:03:00;;;;;;;6.07;2.43;;;1.80;91.90;;;;;;5113341;28;20039;-67
2021/01/14 02:05:26;;;;;;;7.03;2.60;;;1.80;92.00;;;;;;5086041;27;20074;-67
2021/01/14 02:07:58;;;;;;;6.20;2.60;;;1.80;92.00;;;;;;5120347;27;20047;-67
2021/01/14 02:10:32;;;;;;;7.17;2.50;;;1.80;92.00;;;;;;5113145;27;20039;-67
2021/01/14 02:13:15;;;;;;;5.43;2.40;;;1.80;92.00;;;;;;5110996;27;20035;-68
2021/01/14 02:15:43;;;;;;;6.63;2.50;;;1.80;92.10;;;;;;5089898;27;20059;-67
2021/01/14 02:18:09;;;;;;;5.93;2.50;;;1.80;92.00;;;;;;5102354;27;20055;-68
2021/01/14 02:20:36;;;;;;;7.10;2.43;;;1.80;92.10;;;;;;5103153;27;20035;-68
2021/01/14 02:23:18;;;;;;;5.93;2.57;;;1.80;92.20;;;;;;5103035;27;20055;-68
2021/01/14 02:26:04;;;;;;;6.93;2.77;;;1.80;92.30;;;;;;5111098;27;20036;-67
2021/01/14 02:28:31;;;;;;;6.10;2.40;;;1.90;92.30;;;;;;5113004;27;20078;-68
2021/01/14 02:30:58;;;;;;;5.57;2.20;;;1.90;92.30;;;;;;5067794;27;20038;-69
2021/01/14 02:33:24;;;;;;;7.23;2.40;;;1.90;92.30;;;;;;5103275;28;20036;-67
2021/01/14 02:35:49;;;;;;;6.23;2.70;;;1.90;92.30;;;;;;5100922;27;20043;-67
2021/01/14 02:38:15;;;;;;;8.00;2.60;;;1.90;92.40;;;;;;5119497;27;20036;-67
2021/01/14 02:40:41;;;;;;;6.60;2.80;;;1.90;92.40;;;;;;5090568;28;20472;-67
2021/01/14 02:43:06;;;;;;;7.47;2.80;;;1.90;92.50;;;;;;5102275;27;20466;-66
2021/01/14 02:45:33;;;;;;;7.60;2.97;;;1.90;92.50;;;;;;5112707;27;20035;-68
2021/01/14 02:48:00;;;;;;;8.27;3.13;;;1.90;92.50;;;;;;5102807;27;20032;-68
2021/01/14 02:50:28;;;;;;;8.87;3.10;;;1.90;92.60;;;;;;5102916;27;20067;-67
2021/01/14 02:52:58;;;;;;;7.47;2.80;;;1.90;92.50;;;;;;5101062;27;20436;-67
2021/01/14 02:55:24;;;;;;;8.20;3.08;;;1.90;92.60;;;;;;5101702;27;20122;-67
2021/01/14 02:57:50;;;;;;;8.40;3.40;;;1.90;92.60;;;;;;5103546;27;20123;-66
2021/01/14 03:00:17;;;;;;;9.63;3.17;;;2.00;92.60;;;;;;5109502;27;20567;-67
2021/01/14 03:02:43;;;;;;;8.53;3.30;;;2.00;92.60;;;;;;5091138;28;20043;-68
2021/01/14 03:05:09;;;;;;;8.40;3.17;;;2.00;92.60;;;;;;5091119;28;20119;-67
2021/01/14 03:07:34;;;;;;;9.13;3.40;;;2.00;92.60;;;;;;5112093;27;20434;-67
2021/01/14 03:10:00;;;;;;;9.83;4.00;;;2.00;92.70;;;;;;5113033;28;20118;-68
2021/01/14 03:12:26;;;;;;;8.53;3.47;;;2.00;92.80;;;;;;5094673;28;20515;-67
2021/01/14 03:14:54;;;;;;;13.60;3.63;;;2.00;92.70;;;;;;5113294;28;20032;-67
2021/01/14 03:17:19;;;;;;;8.43;3.63;;;2.00;92.70;;;;;;5078527;28;20414;-68
2021/01/14 03:19:45;;;;;;;8.27;3.10;;;2.10;92.70;;;;;;5112870;28;20058;-67
2021/01/14 03:22:11;;;;;;;8.57;3.60;;;2.00;92.80;;;;;;5094674;28;20036;-68
2021/01/14 03:24:39;;;;;;;8.80;3.83;;;2.10;92.80;;;;;;5112609;28;20511;-68
2021/01/14 03:27:06;;;;;;;8.17;3.27;;;2.10;92.80;;;;;;5113842;28;20496;-68
2021/01/14 03:29:32;;;;;;;9.93;3.90;;;2.10;92.70;;;;;;5113363;28;20032;-68
2021/01/14 03:32:01;;;;;;;12.10;3.93;;;2.10;92.70;;;;;;5094374;28;20024;-67
2021/01/14 03:34:28;;;;;;;9.03;3.87;;;2.00;92.70;;;;;;5077998;28;20492;-68
2021/01/14 03:36:57;;;;;;;8.53;3.97;;;2.10;92.80;;;;;;5112932;28;20039;-67
2021/01/14 03:39:24;;;;;;;9.97;4.00;;;2.10;92.80;;;;;;5095194;28;20069;-67
2021/01/14 03:41:51;;;;;;;9.70;4.27;;;2.10;92.90;;;;;;5112411;28;20067;-66
2021/01/14 03:44:17;;;;;;;9.93;4.20;;;2.10;92.90;;;;;;5094930;28;20040;-69
2021/01/14 03:46:45;;;;;;;11.13;4.70;;;2.10;92.90;;;;;;5094967;28;20039;-68
2021/01/14 03:49:11;;;;;;;9.80;4.10;;;2.10;92.90;;;;;;5112658;28;20027;-66
2021/01/14 03:51:37;;;;;;;10.07;4.30;;;2.10;92.90;;;;;;5112936;28;20381;-68
2021/01/14 03:54:03;;;;;;;9.80;4.30;;;2.10;92.80;;;;;;5112604;28;20037;-68
2021/01/14 03:56:28;;;;;;;11.73;4.73;;;2.10;92.90;;;;;;5112256;28;20080;-67
2021/01/14 03:58:54;;;;;;;10.57;4.47;;;2.10;92.90;;;;;;5112918;28;20107;-66
2021/01/14 04:01:22;;;;;;;9.00;4.03;;;2.10;93.10;;;;;;5112549;28;20035;-68
2021/01/14 04:03:48;;;;;;;11.57;4.63;;;2.10;92.90;;;;;;5112480;28;20437;-68
2021/01/14 04:06:14;;;;;;;10.23;4.30;;;2.10;92.90;;;;;;5112454;28;20130;-67
2021/01/14 04:08:40;;;;;;;13.03;5.00;;;2.10;92.90;;;;;;5112433;28;20056;-67
2021/01/14 04:11:08;;;;;;;11.07;4.67;;;2.10;92.90;;;;;;5112769;28;20164;-67
2021/01/14 04:13:34;;;;;;;14.10;5.17;;;2.10;92.90;;;;;;5093401;28;20039;-68
2021/01/14 04:16:00;;;;;;;11.03;4.63;;;2.10;93.00;;;;;;5111908;28;20039;-68
2021/01/14 04:18:25;;;;;;;11.50;5.20;;;2.10;92.90;;;;;;5112061;28;20042;-68
2021/01/14 04:20:52;;;;;;;12.17;5.50;;;2.10;93.00;;;;;;5093349;28;20043;-68
2021/01/14 04:23:18;;;;;;;13.00;5.30;;;2.10;92.90;;;;;;5093336;28;20050;-67
2021/01/14 04:25:43;;;;;;;17.17;5.33;;;2.10;93.00;;;;;;5093502;28;20492;-68
2021/01/14 04:28:09;;;;;;;15.33;6.37;;;2.10;93.10;;;;;;5112246;28;20039;-68
2021/01/14 04:30:36;;;;;;;11.97;5.70;;;2.20;93.00;;;;;;5093492;28;20047;-67
2021/01/14 04:33:11;;;;;;;11.57;5.23;;;2.10;93.00;;;;;;5111927;28;20042;-68
2021/01/14 04:35:57;;;;;;;15.13;5.23;;;2.20;93.00;;;;;;5111938;28;20168;-68
2021/01/14 04:38:25;;;;;;;14.53;6.80;;;2.20;93.00;;;;;;5093670;28;20035;-68
2021/01/14 04:40:55;;;;;;;15.83;7.00;;;2.20;93.10;;;;;;5112156;28;20047;-67
2021/01/14 04:43:23;;;;;;;13.18;5.82;;;2.20;93.00;;;;;;5111423;28;20031;-67
2021/01/14 04:45:55;;;;;;;13.90;6.10;;;2.20;92.90;;;;;;5076704;28;20042;-67
2021/01/14 04:48:22;;;;;;;14.70;6.20;;;2.20;92.90;;;;;;5093924;28;20044;-67
2021/01/14 04:50:49;;;;;;;14.67;5.80;;;2.10;93.00;;;;;;5111930;28;20036;-68
2021/01/14 04:53:21;;;;;;;12.70;5.77;;;2.20;93.10;;;;;;5092774;28;20130;-68
2021/01/14 04:55:48;;;;;;;14.80;5.60;;;2.20;93.00;;;;;;5111610;28;20118;-68
2021/01/14 04:58:16;;;;;;;11.80;5.47;;;2.20;93.00;;;;;;5111840;28;20035;-67
2021/01/14 05:00:51;;;;;;;13.33;5.93;;;2.20;93.00;;;;;;5111231;28;20032;-68
2021/01/14 05:03:25;;;;;;;13.23;5.80;;;2.20;93.00;;;;;;5111407;28;20085;-67
2021/01/14 05:05:51;;;;;;;12.60;6.00;;;2.20;93.00;;;;;;5111045;28;20035;-68
2021/01/14 05:08:29;;;;;;;13.77;5.90;;;2.20;93.00;;;;;;5111800;28;20102;-67
2021/01/14 05:10:55;;;;;;;12.67;5.83;;;2.20;93.00;;;;;;5093045;28;20067;-66
2021/01/14 05:13:21;;;;;;;12.60;5.73;;;2.20;93.00;;;;;;5093128;28;20495;-68
2021/01/14 05:15:47;;;;;;;15.67;6.27;;;2.20;93.00;;;;;;5092552;28;20074;-66
2021/01/14 05:18:13;;;;;;;13.97;5.77;;;2.20;93.00;;;;;;5111599;28;20036;-67
2021/01/14 05:20:38;;;;;;;14.47;6.27;;;2.20;93.00;;;;;;5111479;28;20061;-67
2021/01/14 05:23:05;;;;;;;14.43;6.50;;;2.30;93.10;;;;;;5110213;28;20532;-68
2021/01/14 05:25:32;;;;;;;17.47;7.17;;;2.30;93.10;;;;;;5074309;28;20074;-68
2021/01/14 05:28:14;;;;;;;15.17;6.93;;;2.30;93.10;;;;;;5110651;28;20039;-67
2021/01/14 05:30:41;;;;;;;13.97;5.77;;;2.30;93.00;;;;;;5110934;28;20040;-65
2021/01/14 05:33:15;;;;;;;13.37;6.03;;;2.30;93.00;;;;;;5074906;28;20066;-68
2021/01/14 05:35:47;;;;;;;15.73;6.93;;;2.30;93.00;;;;;;5092831;28;20048;-68
2021/01/14 05:38:25;;;;;;;14.90;6.47;;;2.30;93.20;;;;;;5110777;28;20085;-66
2021/01/14 05:41:18;;;;;;;13.10;6.00;;;2.30;93.10;;;;;;5093057;28;20097;-68
2021/01/14 05:43:55;;;;;;;13.97;5.60;;;2.30;93.00;;;;;;5110549;28;20035;-67
2021/01/14 05:46:31;;;;;;;10.97;5.10;;;2.30;93.00;;;;;;5110897;28;20038;-68
2021/01/14 05:49:00;;;;;;;14.43;5.90;;;2.30;93.00;;;;;;5110750;28;20043;-67
2021/01/14 05:51:33;;;;;;;15.17;5.73;;;2.30;92.90;;;;;;5092896;28;20537;-68
2021/01/14 05:54:00;;;;;;;14.17;6.73;;;2.30;92.90;;;;;;5110561;28;20042;-66
2021/01/14 05:56:46;;;;;;;14.63;6.80;;;2.30;93.00;;;;;;5110859;28;20068;-67
2021/01/14 05:59:17;;;;;;;11.43;5.17;;;2.30;93.00;;;;;;5110667;28;20411;-67
2021/01/14 06:02:00;;;;;;;14.60;5.50;;;2.30;92.90;;;;;;5110737;28;20030;-67
2021/01/14 06:04:30;;;;;;;11.57;5.30;;;2.30;92.90;;;;;;5110381;28;20369;-67
2021/01/14 06:07:04;;;;;;;13.93;5.70;;;2.30;92.90;;;;;;5110728;28;20489;-68
2021/01/14 06:09:40;;;;;;;15.07;6.00;;;2.20;92.90;;;;;;5076555;28;20412;-67
2021/01/14 06:12:11;;;;;;;17.53;7.23;;;2.30;93.00;;;;;;5110635;28;20035;-67
2021/01/14 06:14:37;;;;;;;13.82;6.28;;;2.30;93.00;;;;;;5110083;28;20065;-67
2021/01/14 06:17:04;;;;;;;15.33;6.00;;;2.30;92.90;;;;;;5110881;28;20538;-67
2021/01/14 06:19:31;;;;;;;14.00;6.97;;;2.30;92.90;;;;;;5092169;28;20044;-67
2021/01/14 06:21:57;;;;;;;13.20;6.17;;;2.30;92.90;;;;;;5110347;28;20088;-66
2021/01/14 06:24:30;;;;;;;14.00;5.57;;;2.30;92.70;;;;;;5091184;28;20032;-66
2021/01/14 06:27:11;;;;;;;11.70;5.53;;;2.30;92.70;;;;;;5110208;28;20380;-67
2021/01/14 06:29:41;;;;;;;13.80;6.23;;;2.30;92.70;;;;;;5110081;28;20039;-68
2021/01/14 06:32:15;;;;;;;10.68;5.18;;;2.30;92.70;;;;;;5092270;28;20123;-68
2021/01/14 06:34:45;;;;;;;12.87;5.73;;;2.20;92.70;;;;;;5109905;28;20382;-67
2021/01/14 06:37:13;;;;;;;14.10;5.33;;;2.20;92.70;;;;;;5110730;28;20500;-68
2021/01/14 06:39:43;;;;;;;11.87;5.70;;;2.20;92.60;;;;;;5110557;28;20284;-67
2021/01/14 06:42:17;;;;;;;12.23;5.77;;;2.10;92.30;;;;;;5110092;28;20402;-67
2021/01/14 06:45:04;;;;;;;15.20;6.10;;;2.00;91.90;;;;;;5112315;28;20300;-67
2021/01/14 06:47:32;;;;;;;11.27;5.77;;;1.80;91.70;;;;;;5095616;28;20100;-68
2021/01/14 06:50:17;;;;;;;13.03;5.90;;;1.70;91.90;;;;;;5114173;28;20089;-67
2021/01/14 06:53:03;;;;;;;12.43;6.17;;;1.60;92.50;;;;;;5113484;28;20071;-68
2021/01/14 06:55:33;;;;;;;15.13;5.90;;;1.60;92.80;;;;;;5113510;28;20544;-65
2021/01/14 06:58:19;;;;;;;11.85;5.60;;;1.70;92.90;;;;;;5114490;28;20031;-67
2021/01/14 07:00:47;;;;;;;11.83;5.30;;;1.70;92.90;;;;;;5113684;28;20428;-66
2021/01/14 07:03:13;;;;;;;14.27;6.03;;;1.80;92.90;;;;;;5113739;28;20035;-67
2021/01/14 07:06:04;;;;;;;13.83;6.13;;;1.80;92.80;;;;;;5113302;28;20031;-67
2021/01/14 07:08:37;;;;;;;13.52;5.88;;;1.80;92.80;;;;;;5095812;28;20039;-67
2021/01/14 07:11:04;;;;;;;11.37;5.47;;;1.90;92.80;;;;;;5113324;28;20032;-67
2021/01/14 07:13:41;;;;;;;12.73;5.93;;;1.90;92.80;;;;;;5095073;28;20030;-66
2021/01/14 07:16:10;;;;;;;12.80;5.83;;;1.90;92.80;;;;;;5112958;28;20089;-67
2021/01/14 07:18:37;;;;;;;12.87;5.83;;;1.90;92.80;;;;;;5095450;28;20133;-67
2021/01/14 07:21:20;;;;;;;13.30;5.90;;;2.00;92.80;;;;;;5095219;28;20035;-67
2021/01/14 07:23:53;;;;;;;13.07;5.70;;;1.90;92.70;;;;;;5113412;28;20039;-67
2021/01/14 07:26:20;;;;;;;12.57;5.67;;;1.90;92.70;;;;;;5094701;28;20040;-68
2021/01/14 07:28:46;;;;;;;12.87;5.97;;;2.00;92.70;;;;;;5078736;28;20104;-68
2021/01/14 07:31:26;;;;;;;12.83;5.77;;;2.00;92.60;;;;;;5094861;28;20043;-68
2021/01/14 07:33:53;;;;;;;14.17;5.80;;;1.90;92.50;;;;;;5113152;28;20061;-67
2021/01/14 07:36:24;;;;;;;12.83;5.47;;;1.90;92.50;;;;;;5112677;28;20043;-66
2021/01/14 07:38:54;;;;;;;;;;;1.90;92.70;;;;;;5113858;28;20042;-68
2021/01/14 07:41:21;;;;;;;15.30;5.80;;;1.90;92.80;;;;;;5094367;27;19957;-67
2021/01/14 07:43:48;;;;;;;13.50;5.53;;;1.90;92.70;;;;;;5113410;27;20052;-67
2021/01/14 07:46:27;;;;;;;13.60;6.57;;;1.90;92.70;;;;;;5094588;27;20496;-68
2021/01/14 07:48:53;;;;;;;14.23;6.53;;;1.90;92.70;;;;;;5094983;28;20050;-67
2021/01/14 07:51:20;;;;;;;14.07;6.83;;;1.90;92.60;;;;;;5129061;27;20075;-66
2021/01/14 07:54:16;;;;;;;12.50;6.10;;;2.00;92.60;;;;;;5112204;27;20043;-66
2021/01/14 07:56:53;;;;;;;13.57;6.33;;;2.00;92.50;;;;;;5099220;27;20040;-68
2021/01/14 07:59:29;;;;;;;14.83;6.90;;;2.00;92.60;;;;;;5112967;27;20564;-66
2021/01/14 08:02:03;;;;;;;13.53;6.70;;;1.90;92.60;;;;;;5110637;27;20104;-67
2021/01/14 08:04:29;;;;;;;16.03;7.13;;;2.00;92.60;;;;;;5112539;27;20111;-67
2021/01/14 08:06:55;;;;;;;14.33;6.43;;;2.00;92.60;;;;;;5112334;27;20050;-67
2021/01/14 08:09:22;;;;;;;12.93;6.10;;;2.00;92.60;;;;;;5110157;27;20036;-67
2021/01/14 08:11:48;;;;;;;14.37;5.90;;;2.00;92.50;;;;;;5083199;27;20035;-65
2021/01/14 08:14:18;;;;;;;11.80;6.20;;;2.00;92.30;;;;;;5112084;28;20492;-67
2021/01/14 08:16:47;;;;;;;15.10;6.73;;;2.00;92.20;;;;;;5111332;28;20052;-66
2021/01/14 08:19:14;;;;;;;12.33;6.03;;;2.00;92.30;;;;;;5111904;28;20484;-67
2021/01/14 08:21:49;;;;;;;13.23;6.60;;;2.00;92.40;;;;;;5111292;27;20031;-64
2021/01/14 08:24:39;;;;;;;14.30;6.23;;;2.00;92.70;;;;;;5092934;27;20028;-67
2021/01/14 08:27:07;;;;;;;12.00;5.88;;;2.10;92.80;;;;;;5092872;27;20040;-67
2021/01/14 08:29:44;;;;;;;11.87;5.17;;;2.20;92.80;;;;;;5112171;28;20031;-65
2021/01/14 08:32:38;;;;;;;12.80;5.97;;;2.30;92.80;;;;;;5111348;28;20036;-67
2021/01/14 08:35:07;;;;;;;16.70;6.47;;;2.30;92.70;;;;;;5111497;28;20118;-65
2021/01/14 08:37:45;;;;;;;14.47;6.40;;;2.40;92.70;;;;;;5093851;28;20449;-65
2021/01/14 08:40:13;;;;;;;16.70;6.43;;;2.40;92.70;;;;;;5111661;28;20043;-67
2021/01/14 08:42:42;;;;;;;13.97;6.93;;;2.50;92.70;;;;;;5109268;28;20043;-67
2021/01/14 08:45:14;;;;;;;17.53;8.90;;;2.60;92.80;;;;;;5091033;28;20031;-67
2021/01/14 08:47:59;;;;;;;18.83;8.47;;;2.70;92.80;;;;;;5093402;28;20491;-67
2021/01/14 08:50:37;;;;;;;12.87;5.63;;;2.80;92.70;;;;;;5111368;28;20446;-67
2021/01/14 08:53:05;;;;;;;14.50;6.43;;;2.80;92.60;;;;;;5077006;28;20031;-67
2021/01/14 08:55:32;;;;;;;19.27;10.10;;;2.80;92.50;;;;;;5110428;28;20039;-67
2021/01/14 08:58:00;;;;;;;31.53;15.37;;;2.80;92.50;;;;;;5109616;28;20111;-66
2021/01/14 09:00:26;;;;;;;24.43;12.53;;;2.90;92.40;;;;;;5091742;28;20039;-67
2021/01/14 09:02:53;;;;;;;24.63;11.00;;;2.80;92.40;;;;;;5109347;27;20180;-66
2021/01/14 09:05:20;;;;;;;13.23;6.03;;;2.80;92.60;;;;;;5109298;27;20080;-66
2021/01/14 09:08:05;;;;;;;11.73;5.57;;;2.80;92.40;;;;;;5108285;28;20039;-67
2021/01/14 09:10:54;;;;;;;16.27;5.80;;;2.80;92.40;;;;;;5110563;27;20120;-66
2021/01/14 09:13:25;;;;;;;10.77;5.10;;;2.80;92.40;;;;;;5091285;28;20668;-66
2021/01/14 09:15:54;;;;;;;11.87;5.77;;;2.80;92.40;;;;;;5110424;28;20040;-66
2021/01/14 09:18:35;;;;;;;12.83;5.33;;;2.80;92.40;;;;;;5109615;28;20076;-66
2021/01/14 09:21:01;;;;;;;10.10;4.80;;;2.80;92.40;;;;;;5109833;28;20036;-67
2021/01/14 09:23:33;;;;;;;12.27;5.83;;;2.90;92.40;;;;;;5091861;28;20024;-67
2021/01/14 09:26:04;;;;;;;15.03;6.50;;;2.90;92.40;;;;;;5110697;28;20032;-68
2021/01/14 09:28:32;;;;;;;11.57;5.17;;;2.90;92.40;;;;;;5110460;28;20046;-67
2021/01/14 09:31:07;;;;;;;13.10;5.70;;;3.00;92.30;;;;;;5111188;28;20032;-68
2021/01/14 09:33:38;;;;;;;12.00;5.00;;;2.90;92.10;;;;;;5110242;28;20047;-67
2021/01/14 09:36:14;;;;;;;12.97;4.93;;;2.90;92.10;;;;;;5092777;28;20405;-67
2021/01/14 09:38:46;;;;;;;12.10;5.10;;;2.90;92.20;;;;;;5110525;28;20400;-67
2021/01/14 09:41:19;;;;;;;9.87;4.47;;;3.00;92.30;;;;;;5111065;28;20507;-67
2021/01/14 09:43:48;;;;;;;9.53;4.83;;;3.00;92.30;;;;;;5110219;28;20044;-68
2021/01/14 09:46:14;;;;;;;12.80;4.63;;;3.10;92.40;;;;;;5110491;28;20093;-67
2021/01/14 09:48:41;;;;;;;14.67;5.10;;;3.20;92.30;;;;;;5110382;28;20093;-68
2021/01/14 09:51:09;;;;;;;11.03;4.70;;;3.30;92.30;;;;;;5110903;28;20126;-66
2021/01/14 09:53:41;;;;;;;10.57;4.40;;;3.30;92.20;;;;;;5110327;28;20035;-65
2021/01/14 09:56:11;;;;;;;11.03;4.87;;;3.40;92.10;;;;;;5092022;28;20043;-65
2021/01/14 09:58:40;;;;;;;9.85;4.63;;;3.40;92.20;;;;;;5092494;28;20510;-67
2021/01/14 10:01:11;;;;;;;9.63;5.00;;;3.40;92.20;;;;;;5110518;28;20088;-67
2021/01/14 10:03:39;;;;;;;11.63;4.93;;;3.50;92.00;;;;;;5110412;28;20036;-67
2021/01/14 10:06:06;;;;;;;11.30;4.80;;;3.50;92.00;;;;;;5091587;28;20044;-68
2021/01/14 10:08:33;;;;;;;12.40;4.73;;;3.50;91.90;;;;;;5092498;28;20043;-68
2021/01/14 10:11:01;;;;;;;11.43;5.20;;;3.50;91.80;;;;;;5092273;28;20100;-68
2021/01/14 10:13:27;;;;;;;18.03;6.70;;;3.50;91.70;;;;;;5092002;28;20399;-67
2021/01/14 10:16:09;;;;;;;14.07;6.07;;;3.50;91.70;;;;;;5092051;28;20136;-67
2021/01/14 10:21:11;;;;;;;16.60;6.73;;;3.40;91.50;;;;;;5490807;22;20045;-76
2021/01/14 10:23:37;;;;;;;15.87;7.20;;;3.40;91.50;;;;;;5067518;28;20102;-76
2021/01/14 10:26:03;;;;;;;27.00;11.30;;;3.40;91.60;;;;;;5066148;28;20111;-76
2021/01/14 10:28:43;;;;;;;17.43;7.50;;;3.30;91.60;;;;;;5064432;28;20052;-76
2021/01/14 10:31:11;;;;;;;11.80;5.50;;;3.30;91.60;;;;;;5073042;28;20101;-75
2021/01/14 10:33:37;;;;;;;14.30;6.17;;;3.30;91.60;;;;;;5072770;28;20036;-75
2021/01/14 10:36:03;;;;;;;14.20;7.67;;;3.30;91.50;;;;;;5073564;28;20448;-77
2021/01/14 10:38:30;;;;;;;17.57;7.93;;;3.30;91.50;;;;;;5074325;28;20029;-77
2021/01/14 10:40:57;;;;;;;19.73;9.33;;;3.30;91.70;;;;;;5072044;28;20036;-76
2021/01/14 10:43:34;;;;;;;15.30;6.80;;;3.40;91.60;;;;;;5073468;28;20043;-77
2021/01/14 10:46:01;;;;;;;14.17;5.40;;;3.30;91.30;;;;;;5072805;28;20033;-74
2021/01/14 10:48:37;;;;;;;13.60;6.47;;;3.30;91.30;;;;;;5071766;28;20040;-76
2021/01/14 10:51:06;;;;;;;13.10;5.87;;;3.30;91.40;;;;;;5063667;28;20477;-75
2021/01/14 10:53:40;;;;;;;12.23;5.90;;;3.30;91.50;;;;;;5062179;28;20443;-78
2021/01/14 10:56:11;;;;;;;12.10;5.43;;;3.40;91.50;;;;;;5064995;28;20044;-77
2021/01/14 10:58:40;;;;;;;11.43;5.85;;;3.40;91.40;;;;;;5073272;28;20055;-76
2021/01/14 11:01:15;;;;;;;13.57;6.90;;;3.40;91.40;;;;;;5067162;28;20495;-74
2021/01/14 11:03:41;;;;;;;13.87;5.67;;;3.50;91.40;;;;;;5062493;28;20032;-75
2021/01/14 11:06:07;;;;;;;11.80;5.70;;;3.50;91.50;;;;;;5062036;28;20062;-77
2021/01/14 11:08:44;;;;;;;15.07;6.60;;;3.50;91.50;;;;;;5062985;28;20033;-77
2021/01/14 11:11:12;;;;;;;17.70;8.50;;;3.50;91.40;;;;;;5061777;28;20033;-77
2021/01/14 11:13:42;;;;;;;19.30;8.57;;;3.60;91.30;;;;;;5062370;28;20117;-75
2021/01/14 11:16:10;;;;;;;16.77;7.60;;;3.50;91.20;;;;;;5063849;28;20037;-76
2021/01/14 11:18:37;;;;;;;15.67;6.97;;;3.50;91.30;;;;;;5062428;28;20031;-76
2021/01/14 11:21:03;;;;;;;13.73;7.03;;;3.60;91.30;;;;;;5061845;28;20036;-75
2021/01/14 11:23:29;;;;;;;14.00;6.20;;;3.60;91.20;;;;;;5078729;28;20033;-76
2021/01/14 11:25:55;;;;;;;14.40;6.80;;;3.60;91.30;;;;;;5068152;28;20454;-76
2021/01/14 11:28:21;;;;;;;15.63;6.50;;;3.60;91.20;;;;;;5064209;28;20041;-75
2021/01/14 11:30:46;;;;;;;18.03;7.83;;;3.60;91.10;;;;;;5053791;28;20035;-76
2021/01/14 11:33:12;;;;;;;20.13;8.43;;;3.60;91.10;;;;;;5070320;28;20079;-75
2021/01/14 11:35:38;;;;;;;12.00;6.50;;;3.60;91.00;;;;;;5054370;28;20044;-76
2021/01/14 11:38:04;;;;;;;13.47;6.47;;;3.60;91.00;;;;;;5070697;28;20040;-76
2021/01/14 11:40:30;;;;;;;13.93;6.23;;;3.50;90.90;;;;;;5060757;28;20072;-76
2021/01/14 11:42:56;;;;;;;13.17;6.00;;;3.50;90.90;;;;;;5063140;28;20048;-76
2021/01/14 11:45:21;;;;;;;13.77;6.00;;;3.50;90.90;;;;;;5060218;28;20037;-76
2021/01/14 11:47:47;;;;;;;15.13;6.90;;;3.40;90.80;;;;;;5062143;28;20047;-75
2021/01/14 11:50:13;;;;;;;16.13;8.10;;;3.40;90.90;;;;;;5060089;28;20504;-75
2021/01/14 11:52:39;;;;;;;18.17;8.50;;;3.40;91.00;;;;;;5063796;28;20044;-76
2021/01/14 11:55:05;;;;;;;13.60;6.97;;;3.40;91.00;;;;;;5061861;28;20033;-76
2021/01/14 11:57:31;;;;;;;13.00;6.73;;;3.40;91.00;;;;;;5061721;28;20033;-76
2021/01/14 11:59:57;;;;;;;14.43;6.93;;;3.40;91.00;;;;;;5060848;28;20119;-75
2021/01/14 12:02:23;;;;;;;12.50;6.37;;;3.40;91.00;;;;;;5056944;28;20040;-76
2021/01/14 12:04:49;;;;;;;14.07;6.60;;;3.50;90.90;;;;;;5060645;28;20502;-76
2021/01/14 12:07:14;;;;;;;14.70;7.20;;;3.40;90.80;;;;;;5060669;28;20206;-76
2021/01/14 12:09:40;;;;;;;14.57;6.90;;;3.40;90.90;;;;;;5059622;28;20033;-76
2021/01/14 12:12:07;;;;;;;13.97;7.40;;;3.40;90.90;;;;;;5061215;28;20082;-76
2021/01/14 12:14:35;;;;;;;15.97;7.07;;;3.40;90.90;;;;;;5060718;28;20518;-75
2021/01/14 12:17:01;;;;;;;14.63;7.80;;;3.40;90.90;;;;;;5060489;28;20040;-76
2021/01/14 12:19:27;;;;;;;16.37;7.93;;;3.40;90.90;;;;;;5065924;28;20566;-75
2021/01/14 12:22:03;;;;;;;12.63;6.67;;;3.40;91.00;;;;;;5059275;28;20059;-75
2021/01/14 12:24:30;;;;;;;15.63;7.67;;;3.40;90.90;;;;;;5064147;28;20037;-75
2021/01/14 12:26:55;;;;;;;13.97;6.70;;;3.40;90.90;;;;;;5060459;28;20041;-74
2021/01/14 12:29:21;;;;;;;12.87;6.40;;;3.40;90.90;;;;;;5062552;28;20488;-75
2021/01/14 12:31:47;;;;;;;14.70;5.97;;;3.50;91.00;;;;;;5058533;28;20041;-77
2021/01/14 12:34:14;;;;;;;11.60;5.63;;;3.50;90.80;;;;;;5060042;28;20035;-75
2021/01/14 12:36:40;;;;;;;11.50;6.40;;;3.50;90.80;;;;;;5059978;28;20549;-76
2021/01/14 12:39:06;;;;;;;10.53;5.80;;;3.50;90.80;;;;;;5060966;28;20041;-76
2021/01/14 12:41:33;;;;;;;11.17;6.33;;;3.50;90.80;;;;;;5061400;28;20063;-76
2021/01/14 12:43:59;;;;;;;10.63;6.00;;;3.50;90.80;;;;;;5052147;28;20052;-76
2021/01/14 12:46:32;;;;;;;11.80;6.10;;;3.50;90.80;;;;;;5049903;28;20436;-75
2021/01/14 12:48:58;;;;;;;12.80;5.90;;;3.60;90.90;;;;;;5050076;28;20378;-75
2021/01/14 12:51:24;;;;;;;10.73;5.67;;;3.60;90.80;;;;;;5049133;28;20086;-75
2021/01/14 12:53:50;;;;;;;11.33;5.87;;;3.60;90.80;;;;;;5051272;28;20523;-76
2021/01/14 12:56:16;;;;;;;11.93;6.17;;;3.60;90.80;;;;;;5051383;28;20128;-77
2021/01/14 12:58:42;;;;;;;11.57;6.00;;;3.60;90.80;;;;;;5050614;28;20063;-75
2021/01/14 13:01:08;;;;;;;13.90;6.30;;;3.60;90.70;;;;;;5048803;28;20060;-74
2021/01/14 13:03:34;;;;;;;13.30;5.70;;;3.70;90.70;;;;;;5051908;28;20033;-76
2021/01/14 13:06:00;;;;;;;13.73;6.17;;;3.70;90.70;;;;;;5069163;28;20032;-74